Independence, OR (97351)

12:17 PM PDT on October 01, 2016 (GMT -0700)
Willamette Slough | | Change Station

Elev 164 ft 44.88 °N, 123.14 °W | Updated 6 seconds ago

Overcast
Overcast
59.7 °F
Feels Like 59.7 °F
N
0.0
Wind Variable Wind from NNE
Gusts 0.0 mph

Today
High -- | Low -- °F
--% Chance of Precip.
Yesterday
High -- | Low -- °F
Precip. -- in
Pressure 30.01 in
Visibility 10.0 miles
Clouds Mostly Cloudy 3500 ft
Mostly Cloudy 4200 ft
Overcast 5000 ft
Dew Point 52 °F
Humidity 76%
Rainfall 0.24 in
Snow Depth Not available.
7:11 AM 6:52 PM
New Moon, 1% visible
METAR KSLE 011856Z 19013KT 10SM BKN035 BKN042 OVC050 16/08 A3001 RMK AO2 RAB11E35 SLP161 P0000 T01610078 $
Pressure 30.01 in
Visibility 10.0 miles
Clouds Mostly Cloudy 3500 ft
Mostly Cloudy 4200 ft
Overcast 5000 ft
Dew Point 52 °F
Humidity 76%
Rainfall 0.24 in
Snow Depth Not available.
7:11 AM 6:52 PM
New Moon, 1% visible
METAR KSLE 011856Z 19013KT 10SM BKN035 BKN042 OVC050 16/08 A3001 RMK AO2 RAB11E35 SLP161 P0000 T01610078 $

10-Day Weather Forecast

Almanac

Astronomy

Oct. 01, 2016 Rise Set
Actual Time
Civil Twilight
Nautical Twilight
Astronomical Twilight
Moon
Length of Visible Light
Length of Day
Tomorrow will be .
, % of the Moon is Illuminated

Today's Extremes

State Highs State Lows

Community

WunderPhotos

Upload Photos

1,942,999 photos uploaded!

WunderBlog® & News

Nearby

Air Quality

  Air Quality AQ Index Pollutant
Not available.

Snow Depth

Station Depth Elevation

Earthquake Activity

City Distance Mag. Time & Date
Minimum magnitude displayed is 2.5.

Coastal Water Temperatures

Place Temperature

Stations

Nearby Weather Stations

Station Location Temp. Windchill Dew Point Humidity Wind Precip. Elev Updated Type
                   

Watches & Warnings

There are currently no watches in effect.